الصفحة الرئيسية
METAR-TAF:

METAR-TAF

مطار :

مالاكا, ماليزيا

دائرة عرض: 02-16N, خط طول: 102-15E, ارتفاع: 11 متر

مراقبة الطقس الحالي

تاريخ ووقت الإصدار 42 دقيقة قبل الساعة 21:00UTC
رياح هادئة
درجة الحرارة 25°درجة مئوية
الرطوبة 100%
ضغط 1009 hPa
الرؤية 10 كم أو أكثر
غيوم قليلة على ارتفاع 1000 قدم

METAR: WMKM 252100Z 00000KT 9999 FEW010 25/25 Q1009

زمن: 05:42 (21:42 UTC)

توقعات

تاريخ ووقت الإصدار 4ساعات و 42 دقيقة قبل الساعة 17:00UTC
التوقعات صالحة من25 الساعة 18 UTC إلى 26 الساعة 18 UTC
ريح 2 عقدةمن اتجاهات متغيرة
الرؤية 10 كم أو أكثر
غيوم قليلة على ارتفاع 2800 قدم
مؤقت
من 26 الساعة 03 UTC إلى 26 الساعة 05 UTC
ريح 9 عقدة من الجنوب/الجنوب الشرقي تتزايد حتى 21 عقدة
الرؤية: 5000 متر
غيوم قليلة على ارتفاع 1700 قدم, مزنة ركامية.
غيوم متفرقة على ارتفاع 1800 قدم
عاصفة رعدية, مطر

TAF: WMKM 251700Z 2518/2618 VRB02KT 9999 FEW028 TEMPO 2603/2605 16009G21KT 5000 TSRA FEW017CB SCT018

أرصاد الطقس والتوقعات من أكثر من 4000 مطار (تقارير الطقس للمطار METAR والتنبؤ بالطقس بالمطارTAF).

المحطات المتاحة هي النقط الصفراء والحمراء على الخريطة.

حرك المؤشر فوق النقطة لمعرفة اسم المحطة.

ثم انقر لمعرفة أرصاد وتوقعات الطقس.

لتغيير الخارطة: اضغط على الأزرار الخضراء مع رمز الصليب الأسود للتكبير. على الزر الأخضر مع شرطة للتصغير، أو على الأسهم الخضراء للخرائط المجاورة.


METAR-TAF: